Time;durP1;ratioP1;P1;durP2;ratioP2;P2;SDS_P1;SDS_P2;PMS_P1;PMS_P2;Temp;Humidity;BMP_temperature;BMP_pressure;BME280_temperature;BME280_humidity;BME280_pressure;Samples;Min_cycle;Max_cycle;Signal;HPM_P1;HPM_P2
2021/06/18 00:01:37;;;;;;;1.07;0.90;;;;;;;21.59;53.74;98601.84;5090344;28;43010;-74
2021/06/18 00:04:11;;;;;;;1.17;1.17;;;;;;;21.56;54.13;98610.28;5105353;28;40802;-73
2021/06/18 00:06:39;;;;;;;0.67;0.67;;;;;;;21.49;54.38;98607.44;5091507;28;41678;-73
2021/06/18 00:09:07;;;;;;;1.00;1.00;;;;;;;21.44;54.39;98607.09;5106542;28;43219;-74
2021/06/18 00:11:36;;;;;;;0.87;0.87;;;;;;;21.39;54.30;98605.91;5110040;28;42887;-73
2021/06/18 00:14:05;;;;;;;0.90;0.90;;;;;;;21.33;54.54;98603.91;5105666;28;40650;-72
2021/06/18 00:16:33;;;;;;;0.80;0.80;;;;;;;21.29;54.87;98605.25;5106668;28;42165;-74
2021/06/18 00:19:02;;;;;;;1.07;0.90;;;;;;;21.23;55.03;98601.41;5106316;28;42387;-73
2021/06/18 00:21:30;;;;;;;0.87;0.87;;;;;;;21.13;54.71;98590.78;5089262;28;42670;-74
2021/06/18 00:23:58;;;;;;;0.97;0.70;;;;;;;21.14;54.70;98600.50;5103151;28;40510;-73
2021/06/18 00:26:27;;;;;;;1.00;1.00;;;;;;;20.98;54.88;98584.38;5108880;28;42188;-72
2021/06/18 00:28:56;;;;;;;0.93;0.90;;;;;;;21.03;55.13;98606.25;5111130;27;43252;-73
2021/06/18 00:31:24;;;;;;;0.70;0.70;;;;;;;20.99;55.00;98599.53;5090601;27;42782;-73
2021/06/18 00:33:51;;;;;;;1.20;1.10;;;;;;;20.93;55.47;98596.66;5105684;28;40485;-73
2021/06/18 00:36:19;;;;;;;1.23;1.13;;;;;;;20.87;55.53;98603.56;5105081;28;41543;-73
2021/06/18 00:38:47;;;;;;;0.80;0.80;;;;;;;20.82;55.29;98597.81;5093262;28;42611;-73
2021/06/18 00:41:14;;;;;;;0.87;0.87;;;;;;;20.77;55.48;98600.19;5089082;28;42422;-73
2021/06/18 00:43:43;;;;;;;1.30;1.20;;;;;;;20.71;55.63;98600.84;5104527;28;39881;-73
2021/06/18 00:46:13;;;;;;;0.80;0.80;;;;;;;20.68;55.55;98601.16;5087901;28;41961;-73
2021/06/18 00:48:41;;;;;;;0.80;0.80;;;;;;;20.63;55.89;98592.78;5106685;27;20326;-73
2021/06/18 00:51:09;;;;;;;1.67;1.20;;;;;;;20.62;56.31;98593.78;5087723;28;43573;-73
2021/06/18 00:53:37;;;;;;;1.03;1.03;;;;;;;20.60;56.07;98591.25;5089365;28;41439;-74
2021/06/18 00:56:05;;;;;;;1.07;1.07;;;;;;;20.58;56.46;98589.72;5089431;28;41350;-73
2021/06/18 00:58:33;;;;;;;0.90;0.90;;;;;;;20.56;55.85;98586.34;5097406;28;42769;-73
2021/06/18 01:01:01;;;;;;;1.03;0.93;;;;;;;20.54;56.06;98588.34;5108762;28;42204;-73
2021/06/18 01:03:30;;;;;;;0.63;0.63;;;;;;;20.49;55.98;98588.88;5109790;28;39916;-73
2021/06/18 01:05:57;;;;;;;1.30;1.20;;;;;;;20.46;56.20;98593.72;5109001;27;41934;-73
2021/06/18 01:08:31;;;;;;;1.13;1.03;;;;;;;20.41;56.28;98587.00;5089968;28;42677;-74
2021/06/18 01:11:03;;;;;;;0.70;0.70;;;;;;;20.37;56.27;98588.34;5071571;28;41108;-74
2021/06/18 01:13:38;;;;;;;0.80;0.80;;;;;;;20.30;56.26;98592.66;5104905;28;39674;-73
2021/06/18 01:16:10;;;;;;;0.97;0.87;;;;;;;20.32;56.43;98590.63;5086957;28;41630;-73
2021/06/18 01:18:45;;;;;;;0.77;0.77;;;;;;;20.29;56.17;98590.97;5089453;28;43550;-73
2021/06/18 01:21:19;;;;;;;0.77;0.77;;;;;;;20.24;56.52;98593.31;5087660;28;41898;-73
2021/06/18 01:23:54;;;;;;;1.10;1.00;;;;;;;20.21;56.60;98587.41;5105910;28;39799;-73
2021/06/18 01:26:58;;;;;;;1.13;0.87;;;;;;;20.17;56.40;98588.72;5109307;27;42660;-74
2021/06/18 01:29:29;;;;;;;0.63;0.63;;;;;;;20.10;56.65;98591.25;5074253;28;42547;-73
2021/06/18 01:31:58;;;;;;;1.00;1.00;;;;;;;20.05;56.96;98589.03;5088456;28;43048;-73
2021/06/18 01:34:29;;;;;;;0.80;0.80;;;;;;;20.03;56.91;98582.13;5089032;28;39714;-72
2021/06/18 01:37:04;;;;;;;0.80;0.80;;;;;;;19.99;56.93;98588.84;5089665;28;41253;-74
2021/06/18 01:39:33;;;;;;;1.43;1.33;;;;;;;19.95;57.08;98584.78;5088883;28;42569;-72
2021/06/18 01:42:03;;;;;;;1.03;1.03;;;;;;;19.92;56.93;98585.09;5088052;28;41546;-74
2021/06/18 01:44:34;;;;;;;1.30;1.20;;;;;;;19.88;57.10;98581.06;5095684;28;41318;-73
2021/06/18 01:47:04;;;;;;;1.10;1.10;;;;;;;19.84;57.23;98585.94;5110380;27;41853;-73
2021/06/18 01:49:34;;;;;;;1.00;1.00;;;;;;;19.83;56.90;98591.47;5108811;27;43291;-72
2021/06/18 01:52:04;;;;;;;1.07;0.90;;;;;;;19.79;56.83;98582.03;5109604;27;41901;-73
2021/06/18 01:54:33;;;;;;;0.60;0.60;;;;;;;19.75;57.13;98580.69;5090618;27;39743;-72
2021/06/18 01:57:02;;;;;;;0.67;0.60;;;;;;;19.72;57.06;98584.53;5089838;28;42119;-73
2021/06/18 01:59:34;;;;;;;0.80;0.80;;;;;;;19.70;57.25;98600.81;5091475;28;43053;-73
2021/06/18 02:02:03;;;;;;;1.27;1.17;;;;;;;19.67;57.19;98589.53;5107312;28;42047;-73
2021/06/18 02:04:33;;;;;;;0.60;0.60;;;;;;;19.66;57.70;98599.44;5091203;28;39838;-74
2021/06/18 02:07:02;;;;;;;0.80;0.80;;;;;;;19.64;57.57;98590.72;5107750;28;41697;-72
2021/06/18 02:09:32;;;;;;;0.90;0.90;;;;;;;19.62;57.81;98590.03;5108982;27;43572;-73
2021/06/18 02:12:00;;;;;;;0.80;0.77;;;;;;;19.60;58.03;98586.66;5109295;27;41173;-73
2021/06/18 02:14:31;;;;;;;0.80;0.80;;;;;;;19.59;58.08;98593.00;5108715;28;39601;-73
2021/06/18 02:17:03;;;;;;;0.80;0.80;;;;;;;19.58;58.09;98596.69;5107621;28;41666;-73
2021/06/18 02:19:34;;;;;;;0.70;0.70;;;;;;;19.56;58.54;98595.16;5109207;27;42549;-73
2021/06/18 02:22:05;;;;;;;0.90;0.90;;;;;;;19.54;58.29;98599.84;5108185;28;41410;-73
2021/06/18 02:24:34;;;;;;;0.70;0.70;;;;;;;19.51;58.37;98606.41;5109552;27;40418;-73
2021/06/18 02:27:04;;;;;;;0.60;0.60;;;;;;;19.47;58.58;98606.84;5108151;27;41505;-73
2021/06/18 02:29:32;;;;;;;0.80;0.80;;;;;;;19.44;58.69;98599.09;5103712;28;44424;-72
2021/06/18 02:32:07;;;;;;;0.83;0.83;;;;;;;19.42;59.12;98610.00;5091354;28;41900;-72
2021/06/18 02:34:35;;;;;;;0.93;0.87;;;;;;;19.40;59.11;98614.69;5106769;28;40794;-73
2021/06/18 02:37:04;;;;;;;0.80;0.80;;;;;;;19.39;58.97;98613.00;5092455;28;42090;-72
2021/06/18 02:39:32;;;;;;;0.80;0.70;;;;;;;19.37;59.19;98615.00;5091297;28;43482;-72
2021/06/18 02:42:00;;;;;;;1.00;1.00;;;;;;;19.33;59.21;98617.16;5092377;28;41893;-73
2021/06/18 02:44:28;;;;;;;0.97;0.97;;;;;;;19.29;59.71;98614.94;5109682;28;39724;-72
2021/06/18 02:47:04;;;;;;;1.10;1.00;;;;;;;19.25;59.70;98622.47;5111515;28;41735;-72
2021/06/18 02:49:40;;;;;;;2.30;0.77;;;;;;;19.16;59.84;98611.84;5105841;27;42741;-73
2021/06/18 02:52:11;;;;;;;0.80;0.80;;;;;;;19.16;60.48;98614.53;5091539;28;42926;-73
2021/06/18 02:54:43;;;;;;;0.70;0.70;;;;;;;19.11;60.34;98611.44;5092076;28;40093;-73
2021/06/18 02:57:18;;;;;;;1.10;1.07;;;;;;;19.06;60.77;98619.94;5106618;28;41647;-72
2021/06/18 02:59:55;;;;;;;0.57;0.57;;;;;;;19.01;60.62;98619.59;5109094;28;42697;-73
2021/06/18 03:02:31;;;;;;;1.17;1.00;;;;;;;18.96;60.76;98617.38;5112879;27;41977;-73
2021/06/18 03:05:03;;;;;;;0.97;0.97;;;;;;;18.92;60.57;98617.81;5103726;28;39738;-72
2021/06/18 03:07:33;;;;;;;0.93;0.93;;;;;;;18.87;60.70;98618.28;5107361;28;41613;-73
2021/06/18 03:10:05;;;;;;;0.90;0.90;;;;;;;18.88;60.38;98625.34;5106518;28;42771;-73
2021/06/18 03:12:35;;;;;;;1.27;1.07;;;;;;;18.86;60.53;98623.81;5107297;28;42459;-72
2021/06/18 03:15:05;;;;;;;1.20;1.10;;;;;;;18.81;60.51;98624.25;5107956;28;40463;-73
2021/06/18 03:17:37;;;;;;;2.17;1.33;;;;;;;18.82;60.67;98620.59;5112880;27;42367;-72
2021/06/18 03:20:09;;;;;;;0.60;0.60;;;;;;;18.75;60.65;98614.16;5111623;27;42742;-72
2021/06/18 03:22:38;;;;;;;1.10;1.00;;;;;;;18.81;60.83;98631.47;5110603;28;42911;-72
2021/06/18 03:25:08;;;;;;;1.00;0.80;;;;;;;18.79;61.04;98620.88;5096749;27;40898;-72
2021/06/18 03:27:37;;;;;;;0.97;0.93;;;;;;;18.78;61.08;98626.44;5091834;28;41723;-73
2021/06/18 03:30:06;;;;;;;0.80;0.80;;;;;;;18.77;61.26;98625.59;5091282;28;43297;-73
2021/06/18 03:32:38;;;;;;;1.30;1.20;;;;;;;18.74;61.71;98628.56;5107174;28;42198;-73
2021/06/18 03:35:07;;;;;;;1.10;1.10;;;;;;;18.72;62.29;98630.56;5089867;28;39952;-73
2021/06/18 03:37:37;;;;;;;0.80;0.80;;;;;;;18.71;62.34;98623.50;5090196;28;40527;-73
2021/06/18 03:40:06;;;;;;;1.30;1.00;;;;;;;18.72;62.95;98624.34;5100823;28;43029;-72
2021/06/18 03:42:34;;;;;;;1.10;1.00;;;;;;;18.72;62.47;98630.56;5111287;27;42264;-72
2021/06/18 03:45:04;;;;;;;0.90;0.90;;;;;;;18.71;62.20;98623.50;5111058;27;40363;-73
2021/06/18 03:47:33;;;;;;;1.30;1.07;;;;;;;18.74;62.40;98633.94;5109254;28;41477;-72
2021/06/18 03:50:04;;;;;;;1.10;1.00;;;;;;;18.76;62.14;98639.16;5091210;27;42680;-72
2021/06/18 03:52:32;;;;;;;0.80;0.80;;;;;;;18.79;62.08;98634.28;5090487;28;42792;-73
2021/06/18 03:55:00;;;;;;;0.80;0.80;;;;;;;18.83;61.95;98643.75;5095717;28;38954;-73
2021/06/18 03:57:28;;;;;;;1.20;1.10;;;;;;;18.89;61.59;98642.28;5110589;28;40243;-72
2021/06/18 03:59:59;;;;;;;0.70;0.70;;;;;;;18.93;61.74;98644.50;5110930;27;43406;-72
2021/06/18 04:02:28;;;;;;;0.93;0.77;;;;;;;19.00;61.59;98640.22;5112168;27;41913;-73
2021/06/18 04:04:56;;;;;;;0.90;0.90;;;;;;;19.06;61.74;98643.28;5097405;27;40465;-72
2021/06/18 04:07:27;;;;;;;1.00;1.00;;;;;;;19.11;61.24;98641.81;5110313;27;41849;-73
2021/06/18 04:09:55;;;;;;;0.80;0.80;;;;;;;19.17;61.37;98635.81;5107406;28;42177;-72
2021/06/18 04:12:23;;;;;;;0.83;0.83;;;;;;;19.21;60.95;98636.34;5108802;28;40874;-72
2021/06/18 04:14:50;;;;;;;0.83;0.83;;;;;;;19.32;61.39;98633.41;5109327;28;40697;-72
2021/06/18 04:17:18;;;;;;;1.00;1.00;;;;;;;19.38;61.21;98643.56;5110249;28;40860;-72
2021/06/18 04:19:46;;;;;;;1.07;0.97;;;;;;;19.46;60.89;98635.53;5111321;27;43966;-73
2021/06/18 04:22:20;;;;;;;1.27;1.00;;;;;;;19.58;61.00;98630.78;5106116;28;42593;-72
2021/06/18 04:24:49;;;;;;;0.90;0.90;;;;;;;19.66;60.87;98625.44;5104993;28;39782;-74
2021/06/18 04:27:17;;;;;;;1.00;0.93;;;;;;;19.75;60.41;98619.16;5109090;28;41784;-72
2021/06/18 04:29:44;;;;;;;1.10;1.00;;;;;;;19.86;60.49;98626.09;5108896;28;42685;-73
2021/06/18 04:32:12;;;;;;;1.00;1.00;;;;;;;19.95;60.37;98631.34;5098101;28;41936;-72
2021/06/18 04:34:40;;;;;;;2.17;1.40;;;;;;;20.06;60.09;98628.34;5109744;28;40307;-72
2021/06/18 04:37:07;;;;;;;1.30;1.00;;;;;;;20.18;60.00;98625.38;5108144;28;41749;-72
2021/06/18 04:39:35;;;;;;;1.63;1.53;;;;;;;20.25;60.14;98626.44;5125387;27;42699;-73
2021/06/18 04:42:05;;;;;;;1.50;1.40;;;;;;;20.38;60.10;98622.31;5110092;27;42874;-73
2021/06/18 04:44:33;;;;;;;0.90;0.90;;;;;;;20.51;60.19;98632.59;5108268;27;39405;-73
2021/06/18 04:47:00;;;;;;;1.37;1.20;;;;;;;20.61;59.89;98630.59;5107878;28;42240;-72
2021/06/18 04:49:28;;;;;;;1.47;1.37;;;;;;;20.73;59.53;98631.13;5107954;28;43240;-72
2021/06/18 04:51:55;;;;;;;0.90;0.90;;;;;;;20.84;59.59;98633.50;5108462;28;42231;-73
2021/06/18 04:54:24;;;;;;;1.40;1.30;;;;;;;20.94;59.34;98631.47;5091558;28;38938;-73
2021/06/18 04:56:51;;;;;;;1.13;1.13;;;;;;;21.05;59.13;98625.78;5107964;28;40741;-73
2021/06/18 04:59:20;;;;;;;1.00;1.00;;;;;;;21.15;59.51;98628.28;5107274;28;42394;-73
2021/06/18 05:01:48;;;;;;;1.53;1.43;;;;;;;21.23;59.08;98636.41;5108517;27;43022;-73
2021/06/18 05:04:16;;;;;;;1.00;1.00;;;;;;;21.35;59.15;98639.63;5090606;28;39912;-74
2021/06/18 05:06:43;;;;;;;1.30;1.20;;;;;;;21.45;59.10;98646.50;5107533;27;41777;-72
2021/06/18 05:09:11;;;;;;;1.30;1.23;;;;;;;21.55;58.91;98646.31;5106556;28;43379;-73
2021/06/18 05:11:38;;;;;;;1.10;1.10;;;;;;;21.65;58.76;98644.28;5109672;27;42826;-72
2021/06/18 05:14:06;;;;;;;1.20;1.10;;;;;;;21.77;58.54;98650.16;5108698;27;40451;-73
2021/06/18 05:16:38;;;;;;;1.20;1.20;;;;;;;21.88;58.77;98650.63;5107740;28;42176;-73
2021/06/18 05:19:07;;;;;;;1.40;1.30;;;;;;;21.92;58.47;98637.66;5108396;27;42723;-75
2021/06/18 05:21:34;;;;;;;1.57;1.47;;;;;;;22.13;57.91;98661.41;5107494;28;42504;-73
2021/06/18 05:24:02;;;;;;;1.80;1.70;;;;;;;22.21;57.71;98653.28;5105321;28;39898;-73
2021/06/18 05:26:30;;;;;;;1.60;1.50;;;;;;;22.32;57.46;98658.28;5088830;28;41847;-73
2021/06/18 05:28:58;;;;;;;1.73;1.63;;;;;;;22.40;57.41;98666.31;5087982;28;42638;-73
2021/06/18 05:31:26;;;;;;;2.13;1.73;;;;;;;22.53;57.03;98666.59;5087876;28;42169;-73
2021/06/18 05:33:55;;;;;;;1.43;1.33;;;;;;;22.64;57.12;98667.22;5104223;28;39939;-74
2021/06/18 05:36:22;;;;;;;1.30;1.20;;;;;;;22.75;56.76;98672.25;5088405;28;41793;-73
2021/06/18 05:38:50;;;;;;;1.30;1.20;;;;;;;22.89;56.47;98676.91;5088594;28;42663;-73
2021/06/18 05:41:18;;;;;;;1.30;1.10;;;;;;;23.03;56.20;98678.84;5088815;28;42665;-73
2021/06/18 05:43:45;;;;;;;1.30;1.20;;;;;;;23.17;56.24;98677.22;5091511;28;40011;-73
2021/06/18 05:46:13;;;;;;;1.67;1.57;;;;;;;23.31;56.39;98681.00;5109506;27;42441;-74
2021/06/18 05:48:41;;;;;;;1.40;1.30;;;;;;;23.45;55.96;98682.91;5107687;28;41665;-80
2021/06/18 05:51:09;;;;;;;2.03;1.93;;;;;;;23.64;55.63;98688.69;5103352;28;41572;-78
2021/06/18 05:53:37;;;;;;;1.50;1.40;;;;;;;23.96;54.54;98687.53;5106643;28;41658;-74
2021/06/18 05:56:05;;;;;;;2.13;1.60;;;;;;;24.38;53.62;98698.75;5106363;28;41658;-76
2021/06/18 05:58:33;;;;;;;1.47;1.37;;;;;;;24.91;52.72;98694.84;5107734;28;43239;-75
2021/06/18 06:01:00;;;;;;;1.53;1.43;;;;;;;25.24;51.83;98704.19;5082223;28;41802;-80
2021/06/18 06:03:28;;;;;;;2.10;1.90;;;;;;;25.29;52.21;98700.91;5104553;28;39217;-77
2021/06/18 06:05:56;;;;;;;1.50;1.40;;;;;;;25.31;52.33;98699.72;5087443;28;40437;-77
2021/06/18 06:08:25;;;;;;;1.77;1.67;;;;;;;25.30;52.53;98698.03;5108066;28;43389;-78
2021/06/18 06:10:53;;;;;;;1.73;1.57;;;;;;;25.29;52.09;98696.34;5110174;28;43164;-78
2021/06/18 06:13:21;;;;;;;1.90;1.50;;;;;;;25.34;52.24;98693.91;5111113;28;39576;-76
2021/06/18 06:15:49;;;;;;;1.43;1.33;;;;;;;25.44;52.48;98676.47;5110599;28;42504;-78
2021/06/18 06:18:17;;;;;;;2.40;2.17;;;;;;;25.56;52.57;98669.47;5110251;28;42844;-77
2021/06/18 06:20:46;;;;;;;1.70;1.60;;;;;;;25.78;53.00;98668.44;5129062;27;42838;-77
2021/06/18 06:23:15;;;;;;;1.87;1.77;;;;;;;25.94;52.35;98661.88;5131488;27;39738;-77
2021/06/18 06:25:44;;;;;;;1.70;1.60;;;;;;;26.10;51.30;98662.38;5123255;27;41813;-77
2021/06/18 06:28:12;;;;;;;1.27;1.27;;;;;;;26.33;51.48;98669.44;5118155;27;42491;-75
2021/06/18 06:30:40;;;;;;;1.70;1.50;;;;;;;26.44;51.03;98680.56;5128019;27;42817;-80
2021/06/18 06:33:08;;;;;;;1.97;1.87;;;;;;;26.52;50.51;98681.44;5114593;27;40395;-74
2021/06/18 06:35:36;;;;;;;1.40;1.30;;;;;;;26.58;50.70;98680.63;5133211;27;42045;-75
2021/06/18 06:38:04;;;;;;;2.47;2.27;;;;;;;26.68;50.52;98684.66;5110988;28;42894;-77
2021/06/18 06:40:31;;;;;;;2.03;1.90;;;;;;;26.83;50.33;98676.31;5097563;27;41234;-75
2021/06/18 06:43:00;;;;;;;2.37;2.17;;;;;;;26.91;48.72;98678.03;5118054;27;41397;-76
2021/06/18 06:45:28;;;;;;;1.43;1.33;;;;;;;27.15;48.53;98691.09;5117712;27;40930;-77
2021/06/18 06:47:56;;;;;;;1.70;1.60;;;;;;;27.42;48.29;98695.53;5093541;28;41356;-75
2021/06/18 06:50:23;;;;;;;1.87;1.77;;;;;;;27.54;48.19;98698.47;5114002;27;42669;-71
2021/06/18 06:52:51;;;;;;;2.50;1.90;;;;;;;27.63;47.91;98707.31;5105920;28;39809;-75
2021/06/18 06:55:19;;;;;;;2.27;2.10;;;;;;;27.68;48.25;98705.66;5109145;28;41704;-85
2021/06/18 06:57:46;;;;;;;1.80;1.70;;;;;;;27.79;47.87;98706.91;5109734;27;42537;-78
2021/06/18 07:00:16;;;;;;;1.63;1.53;;;;;;;27.93;47.70;98705.00;5111596;27;42892;-77
2021/06/18 07:02:44;;;;;;;2.10;2.00;;;;;;;28.16;46.82;98716.28;5093434;28;39363;-74
2021/06/18 07:05:13;;;;;;;2.07;1.63;;;;;;;28.78;45.81;98707.59;5109375;27;41549;-78
2021/06/18 07:07:41;;;;;;;2.07;1.90;;;;;;;29.29;44.34;98726.63;5111090;27;43567;-74
2021/06/18 07:10:09;;;;;;;1.90;1.80;;;;;;;29.50;43.93;98732.81;5109842;27;42000;-75
2021/06/18 07:12:37;;;;;;;2.17;1.97;;;;;;;29.50;44.11;98720.00;5110542;27;39845;-77
2021/06/18 07:15:06;;;;;;;2.03;1.93;;;;;;;29.41;44.71;98704.13;5109062;27;42354;-75
2021/06/18 07:17:35;;;;;;;1.87;1.77;;;;;;;29.45;44.07;98721.72;5108699;27;43228;-78
2021/06/18 07:20:04;;;;;;;2.13;2.03;;;;;;;29.46;43.93;98726.13;5106919;27;42316;-76
2021/06/18 07:22:32;;;;;;;2.20;2.07;;;;;;;29.51;43.86;98732.59;5108353;28;39793;-78
2021/06/18 07:25:00;;;;;;;1.97;1.80;;;;;;;29.67;43.14;98729.31;5091302;28;41789;-77
2021/06/18 07:27:28;;;;;;;1.40;1.30;;;;;;;29.91;42.96;98718.66;5107843;28;41832;-74
2021/06/18 07:29:56;;;;;;;2.17;2.00;;;;;;;30.69;41.25;98733.44;5110815;27;42515;-74
2021/06/18 07:32:24;;;;;;;1.77;1.67;;;;;;;31.72;38.44;98738.84;5111395;27;41513;-77
2021/06/18 07:34:53;;;;;;;2.20;2.00;;;;;;;32.70;37.69;98756.53;5109743;28;40712;-74
2021/06/18 07:37:20;;;;;;;2.37;2.17;;;;;;;33.29;36.44;98743.53;5090308;27;43540;-74
2021/06/18 07:39:48;;;;;;;2.40;2.20;;;;;;;33.93;34.94;98755.19;5089196;28;41603;-75
2021/06/18 07:42:16;;;;;;;2.93;2.73;;;;;;;34.63;34.01;98743.63;5119053;27;40838;-75
2021/06/18 07:44:44;;;;;;;2.83;2.70;;;;;;;35.60;32.62;98760.31;5101935;28;41331;-75
2021/06/18 07:47:11;;;;;;;4.20;3.80;;;;;;;36.75;31.62;98749.66;5093090;28;42262;-74
2021/06/18 07:49:39;;;;;;;2.37;2.17;;;;;;;38.25;30.16;98766.13;5086762;28;41720;-76
2021/06/18 07:52:08;;;;;;;2.20;2.10;;;;;;;39.82;28.36;98760.03;5103891;28;39649;-76
2021/06/18 07:54:36;;;;;;;2.15;2.05;;;;;;;41.12;25.52;98783.25;5092873;28;41518;-79
2021/06/18 07:57:04;;;;;;;2.30;2.20;;;;;;;42.23;24.59;98792.00;5108705;27;42509;-82
2021/06/18 07:59:32;;;;;;;2.40;2.30;;;;;;;43.17;22.91;98812.00;5106708;28;42176;-81
2021/06/18 08:01:59;;;;;;;2.10;2.00;;;;;;;43.78;22.04;98815.47;5092422;28;39024;-79
2021/06/18 08:04:27;;;;;;;2.10;2.00;;;;;;;43.47;22.55;98810.56;5089386;28;41677;-82
2021/06/18 08:06:54;;;;;;;2.53;2.42;;;;;;;42.67;23.09;98791.50;5108557;28;42466;-73
2021/06/18 08:09:23;;;;;;;1.98;1.88;;;;;;;41.37;24.42;98796.88;5107501;28;43036;-74
2021/06/18 08:11:52;;;;;;;2.60;2.50;;;;;;;40.55;25.17;98787.78;5109176;28;39091;-78
2021/06/18 08:14:20;;;;;;;2.08;1.98;;;;;;;40.75;25.97;98779.25;5108497;28;41756;-73
2021/06/18 08:16:48;;;;;;;2.67;2.47;;;;;;;41.51;24.73;98783.88;5091130;27;43821;-72
2021/06/18 08:19:16;;;;;;;2.15;2.05;;;;;;;42.62;23.91;98800.78;5091304;28;43490;-77
2021/06/18 08:21:43;;;;;;;2.30;2.10;;;;;;;43.63;22.32;98806.34;5097631;27;40581;-73
2021/06/18 08:24:11;;;;;;;2.33;2.15;;;;;;;44.38;21.81;98802.88;5088021;28;41588;-74
2021/06/18 08:26:41;;;;;;;2.25;2.15;;;;;;;45.03;21.40;98813.41;5072365;28;41736;-73
2021/06/18 08:29:08;;;;;;;2.50;2.30;;;;;;;45.37;21.43;98817.50;5089382;28;42358;-77
2021/06/18 08:31:36;;;;;;;1.90;1.80;;;;;;;45.12;21.16;98807.88;5109393;27;39951;-79
2021/06/18 08:34:04;;;;;;;1.85;1.75;;;;;;;44.59;21.99;98794.78;5110000;27;42457;-75
2021/06/18 08:36:31;;;;;;;2.08;1.98;;;;;;;43.94;21.64;98774.91;5107422;28;43402;-78
2021/06/18 08:38:59;;;;;;;2.10;2.00;;;;;;;43.98;22.09;98798.28;5109557;27;42235;-78
2021/06/18 08:41:27;;;;;;;2.83;2.63;;;;;;;44.30;21.84;98794.41;5108268;27;40505;-75
2021/06/18 08:43:56;;;;;;;2.55;2.40;;;;;;;44.98;21.06;98807.16;5109453;27;42233;-77
2021/06/18 08:46:24;;;;;;;2.40;2.20;;;;;;;45.76;20.11;98803.41;5088949;28;42784;-73
2021/06/18 08:48:52;;;;;;;2.08;1.98;;;;;;;46.79;19.39;98801.72;5089700;28;42189;-78
2021/06/18 08:51:21;;;;;;;1.70;1.60;;;;;;;47.96;18.66;98802.88;5089352;28;40023;-75
2021/06/18 08:53:49;;;;;;;1.65;1.55;;;;;;;48.96;17.45;98815.78;5087636;28;41578;-74
2021/06/18 08:56:17;;;;;;;1.58;1.48;;;;;;;49.68;16.62;98817.78;5101687;28;42582;-76
2021/06/18 08:58:45;;;;;;;1.83;1.73;;;;;;;50.26;15.75;98818.34;5104684;28;42136;-75
2021/06/18 09:01:14;;;;;;;1.80;1.70;;;;;;;50.49;15.24;98810.94;5088555;28;40441;-78
2021/06/18 09:03:44;;;;;;;1.77;1.67;;;;;;;50.71;16.12;98805.88;5087612;28;42351;-83
2021/06/18 09:06:31;;;;;;;2.17;2.08;;;;;;;50.63;15.36;98802.06;5087807;28;42954;-78
2021/06/18 09:09:19;;;;;;;2.35;2.25;;;;;;;50.51;14.73;98819.84;5087359;28;42112;-81
2021/06/18 09:11:50;;;;;;;2.60;2.50;;;;;;;50.64;15.13;98809.34;5097365;28;41691;-82
2021/06/18 09:14:23;;;;;;;1.90;1.80;;;;;;;51.02;14.80;98811.56;5088183;28;41873;-77
2021/06/18 09:17:08;;;;;;;2.42;2.30;;;;;;;51.46;15.61;98806.63;5087287;28;42657;-79
2021/06/18 09:19:37;;;;;;;2.15;2.05;;;;;;;51.85;14.60;98818.81;5076858;28;41980;-85
2021/06/18 09:22:07;;;;;;;1.98;1.88;;;;;;;52.10;14.34;98815.72;5108448;28;38917;-73
2021/06/18 09:24:37;;;;;;;2.08;1.98;;;;;;;52.34;14.73;98813.44;5109657;27;41464;-77
2021/06/18 09:27:06;;;;;;;1.95;1.85;;;;;;;52.28;13.88;98814.13;5109451;27;42506;-77
2021/06/18 09:29:34;;;;;;;2.00;1.90;;;;;;;52.12;14.26;98802.88;5108674;27;41996;-78
2021/06/18 09:32:06;;;;;;;2.30;2.20;;;;;;;52.37;14.73;98803.38;5087078;28;39673;-72
2021/06/18 09:34:43;;;;;;;2.35;2.25;;;;;;;51.91;14.14;98808.09;5091923;28;42475;-79
2021/06/18 09:37:24;;;;;;;2.00;1.90;;;;;;;50.13;15.43;98802.63;5108841;27;43209;-77
2021/06/18 09:40:14;;;;;;;2.67;2.47;;;;;;;48.37;16.59;98777.53;5106497;27;42181;-80
2021/06/18 09:42:52;;;;;;;2.13;2.03;;;;;;;47.26;16.52;98776.41;5103841;28;39432;-74
2021/06/18 09:45:22;;;;;;;2.17;2.08;;;;;;;47.34;16.66;98772.75;5107455;28;42469;-77
2021/06/18 09:47:52;;;;;;;1.95;1.85;;;;;;;47.51;16.93;98758.63;5091750;28;42711;-74
2021/06/18 09:50:26;;;;;;;2.25;2.13;;;;;;;48.19;16.70;98760.06;5101814;28;42894;-80
2021/06/18 09:53:10;;;;;;;2.25;2.15;;;;;;;48.79;16.53;98766.16;5091096;28;39689;-74
2021/06/18 09:55:39;;;;;;;1.83;1.73;;;;;;;49.76;15.67;98771.75;5091215;28;41251;-73
2021/06/18 09:58:07;;;;;;;1.80;1.70;;;;;;;50.77;15.21;98781.88;5090783;28;43473;-73
2021/06/18 10:00:34;;;;;;;1.83;1.73;;;;;;;51.08;15.29;98770.59;5103719;28;41718;-75
2021/06/18 10:03:08;;;;;;;1.67;1.58;;;;;;;51.07;15.35;98777.41;5110377;28;41633;-74
2021/06/18 10:05:39;;;;;;;3.03;2.83;;;;;;;50.82;15.78;98761.88;5110271;28;41645;-75
2021/06/18 10:08:08;;;;;;;2.47;2.30;;;;;;;50.52;16.25;98759.47;5108051;28;42924;-76
2021/06/18 10:10:38;;;;;;;2.28;2.17;;;;;;;49.83;15.67;98759.91;5090033;28;41950;-76
2021/06/18 10:13:05;;;;;;;2.33;2.22;;;;;;;48.83;16.54;98750.28;5090632;28;40636;-78
2021/06/18 10:15:37;;;;;;;2.10;2.00;;;;;;;47.88;17.94;98742.81;5107441;28;41731;-80
2021/06/18 10:18:12;;;;;;;1.95;1.85;;;;;;;46.89;18.41;98734.03;5107377;28;43317;-83
2021/06/18 10:20:40;;;;;;;2.60;2.50;;;;;;;46.09;19.70;98727.38;5108010;27;42104;-79
2021/06/18 10:23:12;;;;;;;2.53;2.13;;;;;;;45.68;20.50;98723.09;5091864;28;40587;-75
2021/06/18 10:25:44;;;;;;;2.08;1.98;;;;;;;45.49;20.60;98716.97;5104232;28;42486;-74
2021/06/18 10:28:19;;;;;;;2.67;2.58;;;;;;;45.10;19.07;98732.69;5101061;27;42861;-74
2021/06/18 10:30:50;;;;;;;2.00;1.90;;;;;;;44.49;19.80;98724.41;5089566;28;42300;-74
2021/06/18 10:33:36;;;;;;;2.65;2.45;;;;;;;43.94;20.94;98719.06;5098400;28;40224;-77
2021/06/18 10:36:22;;;;;;;2.45;2.25;;;;;;;43.45;21.69;98715.22;5107323;27;41437;-76
2021/06/18 10:39:04;;;;;;;2.55;2.35;;;;;;;43.13;21.77;98715.38;5091264;28;43003;-75
2021/06/18 10:41:32;;;;;;;2.35;2.20;;;;;;;42.82;21.19;98721.59;5088875;28;41199;-77
2021/06/18 10:44:01;;;;;;;2.55;2.42;;;;;;;42.67;21.62;98710.72;5091375;28;40654;-76
2021/06/18 10:46:30;;;;;;;2.45;2.35;;;;;;;42.36;22.43;98713.25;5111084;27;41759;-76
2021/06/18 10:49:03;;;;;;;3.13;2.92;;;;;;;42.08;23.41;98705.97;5127891;27;43173;-78
2021/06/18 10:51:33;;;;;;;2.53;2.38;;;;;;;41.71;22.68;98715.19;5106043;27;42927;-74
2021/06/18 10:54:04;;;;;;;2.20;2.10;;;;;;;41.24;22.83;98697.53;5089791;28;40210;-76
2021/06/18 10:56:57;;;;;;;2.25;2.15;;;;;;;41.01;23.96;98701.16;5089365;28;41718;-77
2021/06/18 10:59:30;;;;;;;2.33;2.23;;;;;;;40.74;24.17;98702.59;5093160;28;42432;-75
2021/06/18 11:02:00;;;;;;;1.87;1.77;;;;;;;40.60;24.61;98692.47;5109489;28;43213;-76
2021/06/18 11:04:41;;;;;;;1.97;1.87;;;;;;;40.55;25.04;98685.84;5108589;28;39878;-76
2021/06/18 11:07:22;;;;;;;2.80;2.60;;;;;;;40.55;24.38;98696.16;5109924;27;41819;-77
2021/06/18 11:09:52;;;;;;;2.20;2.10;;;;;;;40.35;24.93;98691.63;5111065;27;42388;-77
2021/06/18 11:12:40;;;;;;;2.40;2.30;;;;;;;40.38;25.09;98693.00;5109587;28;41609;-76
2021/06/18 11:15:29;;;;;;;2.20;2.10;;;;;;;40.35;26.12;98679.72;5116027;27;40401;-76
2021/06/18 11:18:03;;;;;;;3.10;2.80;;;;;;;40.36;25.95;98664.72;5089379;28;41527;-76
2021/06/18 11:20:54;;;;;;;2.57;2.37;;;;;;;40.36;25.02;98676.63;5103552;28;42500;-80
2021/06/18 11:23:24;;;;;;;2.40;2.30;;;;;;;40.32;24.70;98677.50;5109378;28;42922;-78
2021/06/18 11:25:55;;;;;;;2.10;2.00;;;;;;;40.34;25.72;98672.50;5110633;27;41118;-78
2021/06/18 11:28:51;;;;;;;1.87;1.77;;;;;;;40.33;25.64;98660.56;5088006;28;40669;-80
2021/06/18 11:31:38;;;;;;;2.47;2.27;;;;;;;40.29;24.82;98647.59;5112860;27;42983;-77
2021/06/18 11:34:07;;;;;;;2.00;1.90;;;;;;;40.64;24.79;98669.38;5106974;27;42222;-79
2021/06/18 11:36:44;;;;;;;1.83;1.73;;;;;;;40.80;23.17;98687.53;5109299;28;39250;-77
2021/06/18 11:39:23;;;;;;;1.80;1.70;;;;;;;41.01;23.21;98688.09;5109527;28;40172;-79
2021/06/18 11:42:12;;;;;;;2.13;2.00;;;;;;;41.32;22.92;98688.50;5108967;28;42314;-77
2021/06/18 11:44:40;;;;;;;2.20;2.00;;;;;;;41.54;21.94;98693.47;5108052;28;41768;-81
2021/06/18 11:47:08;;;;;;;2.30;2.20;;;;;;;41.90;23.22;98671.50;5110483;27;40798;-77
2021/06/18 11:49:45;;;;;;;2.20;2.10;;;;;;;42.73;21.74;98684.41;5109063;27;42431;-74